Quincy Regional Baldwin Field
KUIN : now visible

Airfield :











YOU CAN JOIN US ON...

 
LOGIN :

Register | Disclaimer

   EN    FR    IT 

 









Legend :    VFR   Marginal VFR   IFR   Intensive IFR   Very Intensive IFR
Visi :
Ceiling :
>= 8 km
>= 3000ft
5 to 8 km
1000 to 3000 ft
1500m to 5 km
500 to 1000 ft
800 to 1500m
200 to 500 ft
< 800m
< 200 ft
Symbols :   Thunderstorms  Fog  Heavy snow  Heavy precipitations  Wind > 20 kt






- Airport Elevation : 768 ft
- IATA code : UIN


KUIN - Quincy Regional Baldwin Field

CURRENT METAR :
  • 252254Z AUTO 10007KT 10SM CLR 22/18 A2988 RMK AO2 LTG DSNT N AND NE RAE35 TSB03E18 SLP111 P0003 T02220178

EXPIRED METARs :
  • 252224Z AUTO 13006KT 6SM -RA BKN100 BKN120 22/17 A2989 RMK AO2 LTG DSNT N-E TSB03E18 P0003 T02170172
  • 252209Z AUTO 16009KT 10SM -TSRA BKN100 OVC120 21/17 A2990 RMK AO2 LTG DSNT ALQDS TSB03 P0000 T02110172
  • 252154Z AUTO 15010KT 5SM VCTS -RA FEW049 BKN100 BKN120 21/18 A2990 RMK AO2 PK WND 19038/2125 LTG DSNT E AND SE AND W RAB24 SLP121 P0002 T02060178
  • 252126Z AUTO 17025G38KT 9SM VCTS -RA FEW029 SCT045 BKN110 26/19 A2990 RMK AO2 PK WND 19038/2125 LTG DSNT E-SW RAB24 P0000 T02610194
  • 252054Z AUTO 16006KT 10SM CLR 28/20 A2987 RMK AO2 LTG DSNT S SLP109 T02780200 58022

TAF KUIN
Valid from the 25 at 22:00 until the 26 at 18:00 UTC


252208Z 2522/2618 15008KT 6SM -SHRA VCTS BKN040CB
FM260000 14007KT P6SM BKN200
FM261600 16010G17KT P6SM SCT100
KZKC FIR / North America



MET'MAP, your aeronautical weather chart ! - Copyright ORBIFLY December 2007 - Disclaimer

ORBIFLY MET'MAP TEAM :

Programming & Development : Alexandra Zaïnal
Concept & original design : Baudouin d'Aumeries
Assistance for programming : Marc-Olivier Méhu
Technical & hardware support : Manuel Goepfert

Contact : metmap@orbifly.com




SOURCES & CREDITS :

   NOAA       Earth
Advisory